createdAt,value
2022-08-22T00:01:06.065Z,6.68
2022-08-22T00:02:59.810Z,6.82
2022-08-22T00:03:04.338Z,10.32
2022-08-22T00:03:04.652Z,3.72
2022-08-22T00:03:53.543Z,5.53
2022-08-22T00:06:34.191Z,8.43
2022-08-22T00:09:13.447Z,7.32
2022-08-22T00:12:00.476Z,6.97
2022-08-22T00:14:48.883Z,6.97
2022-08-22T00:17:37.218Z,5.93
2022-08-22T00:20:21.391Z,7.25
2022-08-22T00:23:03.236Z,8.20
2022-08-22T00:25:36.355Z,7.82
2022-08-22T00:28:12.078Z,8.30
2022-08-22T00:31:06.922Z,6.28
2022-08-22T00:33:46.962Z,5.78
2022-08-22T00:36:26.027Z,8.07
2022-08-22T00:39:30.511Z,7.22
2022-08-22T00:42:29.412Z,7.35
2022-08-22T00:45:11.618Z,10.43
2022-08-22T00:47:44.699Z,5.97
2022-08-22T00:50:57.257Z,6.13
2022-08-22T00:53:51.715Z,6.05
2022-08-22T00:56:30.113Z,7.75
2022-08-22T00:59:23.603Z,6.45
2022-08-22T01:02:14.089Z,7.85
2022-08-22T01:05:00.953Z,5.88
2022-08-22T01:07:47.789Z,12.02
2022-08-22T01:10:24.282Z,6.38
2022-08-22T01:13:15.735Z,6.72
2022-08-22T01:15:43.533Z,6.07
2022-08-22T01:19:06.303Z,5.95
2022-08-22T01:21:46.758Z,6.45
2022-08-22T01:27:15.886Z,5.53
2022-08-22T01:29:50.438Z,6.38
2022-08-22T01:32:35.406Z,5.20
2022-08-22T01:35:21.267Z,5.88
2022-08-22T01:38:39.822Z,6.03
2022-08-22T01:41:31.823Z,7.20
2022-08-22T01:44:34.487Z,5.35
2022-08-22T01:47:05.530Z,6.03
2022-08-22T01:49:35.612Z,4.93
2022-08-22T01:52:15.539Z,6.30
2022-08-22T01:54:55.029Z,5.95
2022-08-22T01:57:24.281Z,5.18
2022-08-22T01:59:55.105Z,6.32
2022-08-22T02:02:40.292Z,4.43
2022-08-22T02:05:19.662Z,6.18
2022-08-22T02:07:54.662Z,6.65
2022-08-22T02:10:45.881Z,8.63
2022-08-22T02:13:13.165Z,4.38
2022-08-22T02:15:40.481Z,4.55
2022-08-22T02:18:09.145Z,4.47
2022-08-22T02:20:43.476Z,6.10
2022-08-22T02:23:35.093Z,6.80
2022-08-22T02:26:02.151Z,6.55
2022-08-22T02:28:50.247Z,8.70
2022-08-22T02:31:40.060Z,7.30
2022-08-22T02:34:44.420Z,7.20
2022-08-22T02:37:40.350Z,6.50
2022-08-22T02:40:23.465Z,5.30
2022-08-22T02:43:10.125Z,4.78
2022-08-22T02:46:12.989Z,6.60
2022-08-22T02:48:53.071Z,5.75
2022-08-22T02:51:50.196Z,4.78
2022-08-22T02:54:34.165Z,6.63
2022-08-22T02:57:26.987Z,6.93
2022-08-22T03:00:31.742Z,9.27
2022-08-22T03:03:00.109Z,5.90
2022-08-22T03:05:44.654Z,5.45
2022-08-22T03:08:21.573Z,7.50
2022-08-22T03:11:16.607Z,6.10
2022-08-22T03:14:09.418Z,6.38
2022-08-22T03:16:58.507Z,6.07
2022-08-22T03:19:50.390Z,8.40
2022-08-22T03:22:40.196Z,5.95
2022-08-22T03:25:27.124Z,8.43
2022-08-22T03:28:02.252Z,7.38
2022-08-22T03:30:39.220Z,6.85
2022-08-22T03:33:22.869Z,7.57
2022-08-22T03:35:53.062Z,6.90
2022-08-22T03:38:29.609Z,7.35
2022-08-22T03:41:15.597Z,9.32
2022-08-22T03:44:19.244Z,9.38
2022-08-22T03:47:12.349Z,7.60
2022-08-22T03:49:59.233Z,7.93
2022-08-22T03:53:15.257Z,6.75
2022-08-22T03:56:05.126Z,6.55
2022-08-22T03:58:47.374Z,7.03
2022-08-22T04:01:32.426Z,9.85
2022-08-22T04:04:14.799Z,6.82
2022-08-22T04:07:28.201Z,8.15
2022-08-22T04:10:23.720Z,8.88
2022-08-22T04:12:53.871Z,9.95
2022-08-22T04:15:39.053Z,10.52
2022-08-22T04:18:40.013Z,12.88
2022-08-22T04:21:07.149Z,9.05
2022-08-22T04:24:01.188Z,9.52
2022-08-22T04:26:51.289Z,8.35
2022-08-22T04:29:56.246Z,7.47
2022-08-22T04:32:43.660Z,7.30
2022-08-22T04:35:29.677Z,7.25
2022-08-22T04:38:06.244Z,7.40
2022-08-22T04:40:50.348Z,6.55
2022-08-22T04:43:24.222Z,6.97
2022-08-22T04:45:57.621Z,5.65
2022-08-22T04:48:36.203Z,6.28
2022-08-22T04:51:16.993Z,5.93
2022-08-22T04:54:06.264Z,7.35
2022-08-22T04:56:59.816Z,6.78
2022-08-22T04:59:29.449Z,7.28
2022-08-22T05:02:06.562Z,8.70
2022-08-22T05:04:41.913Z,7.50
2022-08-22T05:07:12.223Z,7.75
2022-08-22T05:12:15.398Z,7.35
2022-08-22T05:14:54.528Z,5.78
2022-08-22T05:17:26.895Z,5.00
2022-08-22T05:20:11.677Z,5.25
2022-08-22T05:22:45.410Z,5.35
2022-08-22T05:25:18.899Z,6.40
2022-08-22T05:27:56.253Z,7.68
2022-08-22T05:30:28.090Z,5.45
2022-08-22T05:33:19.453Z,7.20
2022-08-22T05:35:57.960Z,5.85
2022-08-22T05:38:31.375Z,5.53
2022-08-22T05:41:26.637Z,6.07
2022-08-22T05:43:55.124Z,6.20
2022-08-22T05:46:30.169Z,12.55
2022-08-22T05:49:00.737Z,7.70
2022-08-22T05:51:41.690Z,12.25
2022-08-22T05:54:22.531Z,10.40
2022-08-22T05:57:36.625Z,6.55
2022-08-22T06:00:19.109Z,7.40
2022-08-22T06:02:55.089Z,8.30
2022-08-22T06:05:26.636Z,7.32
2022-08-22T06:08:01.157Z,7.18
2022-08-22T06:10:32.753Z,10.07
2022-08-22T06:13:24.399Z,6.50
2022-08-22T06:16:38.051Z,8.60
2022-08-22T06:19:19.656Z,8.88
2022-08-22T06:21:50.614Z,6.57
2022-08-22T06:24:27.449Z,7.22
2022-08-22T06:27:04.175Z,6.50
2022-08-22T06:29:39.734Z,14.65
2022-08-22T06:32:30.620Z,7.65
2022-08-22T06:35:18.012Z,9.35
2022-08-22T06:37:48.079Z,7.75
2022-08-22T06:42:51.009Z,7.03
2022-08-22T06:45:25.608Z,9.20
2022-08-22T06:48:07.149Z,7.47
2022-08-22T06:50:40.978Z,7.68
2022-08-22T06:53:11.843Z,8.50
2022-08-22T06:55:43.692Z,9.32
2022-08-22T06:58:22.036Z,10.60
2022-08-22T07:01:11.084Z,7.45
2022-08-22T07:04:02.983Z,7.20
2022-08-22T07:06:34.976Z,7.57
2022-08-22T07:09:05.626Z,6.13
2022-08-22T07:11:43.742Z,5.93
2022-08-22T07:14:14.686Z,6.63
2022-08-22T07:16:49.891Z,5.70
2022-08-22T07:19:27.096Z,7.60
2022-08-22T07:21:55.657Z,6.28
2022-08-22T07:24:28.147Z,5.60
2022-08-22T07:26:58.403Z,4.85
2022-08-22T07:29:45.880Z,4.55
2022-08-22T07:32:20.756Z,4.65
2022-08-22T07:34:51.063Z,3.50
2022-08-22T07:37:23.572Z,4.45
2022-08-22T07:39:59.992Z,6.40
2022-08-22T07:42:56.129Z,4.60
2022-08-22T07:45:38.286Z,6.68
2022-08-22T07:48:25.847Z,5.88
2022-08-22T07:50:53.399Z,4.93
2022-08-22T07:53:26.171Z,4.50
2022-08-22T07:55:55.499Z,3.67
2022-08-22T07:58:25.799Z,2.13
2022-08-22T08:00:57.052Z,3.88
2022-08-22T08:03:27.885Z,3.92
2022-08-22T08:05:55.555Z,6.40
2022-08-22T08:08:31.177Z,2.97
2022-08-22T08:11:00.416Z,2.20
2022-08-22T08:13:36.238Z,3.50
2022-08-22T08:16:07.438Z,2.50
2022-08-22T08:18:36.983Z,3.88
2022-08-22T08:21:08.241Z,7.03
2022-08-22T08:23:43.536Z,4.40
2022-08-22T08:26:18.445Z,6.35
2022-08-22T08:28:49.925Z,2.60
2022-08-22T08:31:43.435Z,1.67
2022-08-22T08:34:14.312Z,4.43
2022-08-22T08:36:47.857Z,3.13
2022-08-22T08:39:28.590Z,4.55
2022-08-22T08:42:17.158Z,3.63
2022-08-22T08:45:09.204Z,3.50
2022-08-22T08:47:53.044Z,3.05
2022-08-22T08:50:23.872Z,2.33
2022-08-22T08:53:18.216Z,1.80
2022-08-22T08:55:56.692Z,3.10
2022-08-22T08:58:48.465Z,3.90
2022-08-22T09:01:33.186Z,3.67
2022-08-22T09:04:30.940Z,3.03
2022-08-22T09:07:16.538Z,4.90
2022-08-22T09:10:31.400Z,2.53
2022-08-22T09:13:11.772Z,1.90
2022-08-22T09:16:16.712Z,4.15
2022-08-22T09:19:23.776Z,1.48
2022-08-22T09:21:59.834Z,2.25
2022-08-22T09:25:06.018Z,4.03
2022-08-22T09:27:59.681Z,2.75
2022-08-22T09:30:54.332Z,4.47
2022-08-22T09:33:25.275Z,3.20
2022-08-22T09:36:12.213Z,2.75
2022-08-22T09:39:16.440Z,3.33
2022-08-22T09:42:09.108Z,4.32
2022-08-22T09:44:59.392Z,2.35
2022-08-22T09:50:22.150Z,2.63
2022-08-22T09:52:49.998Z,2.72
2022-08-22T09:55:35.157Z,3.22
2022-08-22T09:58:25.893Z,2.70
2022-08-22T10:01:11.390Z,2.92
2022-08-22T10:04:19.487Z,2.17
2022-08-22T10:07:01.939Z,3.47
2022-08-22T10:09:49.204Z,1.90
2022-08-22T10:12:36.319Z,2.75
2022-08-22T10:15:07.170Z,3.65
2022-08-22T10:17:41.058Z,2.33
2022-08-22T10:20:14.561Z,2.40
2022-08-22T10:23:05.284Z,4.68
2022-08-22T10:28:10.577Z,2.90
2022-08-22T10:31:08.777Z,4.63
2022-08-22T10:33:59.323Z,3.38
2022-08-22T10:36:57.086Z,3.15
2022-08-22T10:39:27.563Z,3.65
2022-08-22T10:41:54.683Z,2.10
2022-08-22T10:44:36.717Z,4.72
2022-08-22T10:47:15.393Z,5.40
2022-08-22T10:49:56.759Z,4.40
2022-08-22T10:52:34.119Z,3.15
2022-08-22T10:55:25.385Z,3.45
2022-08-22T10:58:21.797Z,1.65
2022-08-22T11:00:58.519Z,1.60
2022-08-22T11:03:36.818Z,3.95
2022-08-22T11:06:27.999Z,8.37
2022-08-22T11:09:05.021Z,2.47
2022-08-22T11:11:59.835Z,3.00
2022-08-22T11:14:55.003Z,2.22
2022-08-22T11:17:54.098Z,2.50
2022-08-22T11:20:36.820Z,3.33
2022-08-22T11:23:08.232Z,2.20
2022-08-22T11:25:52.610Z,2.35
2022-08-22T11:28:41.057Z,2.65
2022-08-22T11:31:26.311Z,2.40
2022-08-22T11:34:10.809Z,1.50
2022-08-22T11:36:51.638Z,2.30
2022-08-22T11:39:45.335Z,2.03
2022-08-22T11:42:21.973Z,2.20
2022-08-22T11:44:57.278Z,1.50
2022-08-22T11:47:33.247Z,2.80
2022-08-22T11:50:00.434Z,2.13
2022-08-22T11:52:33.541Z,2.55
2022-08-22T11:55:07.130Z,10.95
2022-08-22T11:57:45.202Z,2.00
2022-08-22T12:00:20.810Z,4.53
2022-08-22T12:03:09.162Z,2.58
2022-08-22T12:05:45.785Z,3.53
2022-08-22T12:08:46.525Z,4.93
2022-08-22T12:11:35.864Z,2.88
2022-08-22T12:14:11.441Z,5.93
2022-08-22T12:16:45.902Z,4.80
2022-08-22T12:19:33.096Z,2.72
2022-08-22T12:22:37.611Z,4.03
2022-08-22T12:25:44.699Z,4.53
2022-08-22T12:28:40.637Z,3.05
2022-08-22T12:31:58.834Z,2.33
2022-08-22T12:34:41.656Z,4.97
2022-08-22T12:37:24.955Z,2.17
2022-08-22T12:40:13.999Z,2.33
2022-08-22T12:43:13.088Z,2.95
2022-08-22T12:46:06.204Z,3.42
2022-08-22T12:49:09.984Z,5.30
2022-08-22T12:51:40.014Z,1.70
2022-08-22T12:54:10.225Z,3.10
2022-08-22T12:57:24.582Z,2.50
2022-08-22T13:00:26.698Z,2.45
2022-08-22T13:02:55.917Z,3.50
2022-08-22T13:05:29.228Z,2.63
2022-08-22T13:08:06.608Z,3.72
2022-08-22T13:10:47.862Z,4.30
2022-08-22T13:13:36.559Z,2.88
2022-08-22T13:16:11.770Z,4.18
2022-08-22T13:18:54.112Z,2.53
2022-08-22T13:21:36.310Z,3.42
2022-08-22T13:24:22.718Z,5.80
2022-08-22T13:27:11.683Z,2.75
2022-08-22T13:30:09.646Z,2.92
2022-08-22T13:32:44.401Z,2.67
2022-08-22T13:35:25.750Z,2.10
2022-08-22T13:38:04.761Z,1.88
2022-08-22T13:40:37.024Z,3.25
2022-08-22T13:43:21.984Z,1.75
2022-08-22T13:45:57.800Z,2.55
2022-08-22T13:48:50.723Z,3.28
2022-08-22T13:51:53.906Z,3.90
2022-08-22T13:54:40.199Z,2.20
2022-08-22T13:57:20.020Z,5.20
2022-08-22T14:00:05.561Z,2.30
2022-08-22T14:02:51.801Z,2.30
2022-08-22T14:05:42.093Z,2.85
2022-08-22T14:10:55.305Z,4.38
2022-08-22T14:13:32.507Z,2.85
2022-08-22T14:16:07.142Z,1.63
2022-08-22T14:18:50.283Z,2.22
2022-08-22T14:21:40.495Z,4.07
2022-08-22T14:24:55.716Z,1.88
2022-08-22T14:27:36.150Z,2.80
2022-08-22T14:32:54.489Z,1.85
2022-08-22T14:35:35.303Z,3.55
2022-08-22T14:38:17.927Z,3.45
2022-08-22T14:40:47.424Z,2.45
2022-08-22T14:43:33.976Z,4.18
2022-08-22T14:46:14.796Z,2.35
2022-08-22T14:49:04.151Z,3.00
2022-08-22T14:51:31.520Z,2.67
2022-08-22T14:54:21.488Z,2.17
2022-08-22T14:59:37.511Z,3.17
2022-08-22T15:02:26.242Z,2.08
2022-08-22T15:04:55.579Z,1.85
2022-08-22T15:07:35.101Z,2.90
2022-08-22T15:10:25.666Z,3.63
2022-08-22T15:12:56.210Z,2.38
2022-08-22T15:15:55.039Z,2.38
2022-08-22T15:18:26.914Z,1.75
2022-08-22T15:21:37.239Z,3.45
2022-08-22T15:24:14.218Z,1.80
2022-08-22T15:26:51.567Z,3.90
2022-08-22T15:29:24.226Z,2.53
2022-08-22T15:31:57.613Z,4.50
2022-08-22T15:34:42.177Z,3.08
2022-08-22T15:37:18.468Z,1.98
2022-08-22T15:40:02.930Z,2.75
2022-08-22T15:42:40.192Z,2.00
2022-08-22T15:45:18.247Z,3.03
2022-08-22T15:47:52.122Z,2.45
2022-08-22T15:50:55.087Z,3.50
2022-08-22T15:53:28.709Z,3.25
2022-08-22T15:56:19.315Z,2.75
2022-08-22T15:58:54.250Z,2.45
2022-08-22T16:01:25.526Z,2.72
2022-08-22T16:04:07.081Z,2.15
2022-08-22T16:06:54.049Z,1.95
2022-08-22T16:09:32.992Z,2.45
2022-08-22T16:12:03.502Z,1.38
2022-08-22T16:14:33.827Z,2.80
2022-08-22T16:19:38.489Z,2.67
2022-08-22T16:24:55.390Z,2.35
2022-08-22T16:27:25.240Z,3.72
2022-08-22T16:30:07.576Z,5.90
2022-08-22T16:32:36.295Z,2.05
2022-08-22T16:35:03.711Z,2.75
2022-08-22T16:37:51.729Z,1.42
2022-08-22T16:40:25.599Z,2.60
2022-08-22T16:43:13.852Z,1.48
2022-08-22T16:45:45.750Z,1.80
2022-08-22T16:48:36.571Z,3.25
2022-08-22T16:51:14.902Z,3.00
2022-08-22T16:54:04.131Z,1.92
2022-08-22T16:57:02.905Z,1.20
2022-08-22T16:59:49.451Z,2.20
2022-08-22T17:02:33.340Z,1.80
2022-08-22T17:05:08.755Z,3.38
2022-08-22T17:07:48.330Z,1.48
2022-08-22T17:10:53.495Z,3.22
2022-08-22T17:13:36.789Z,2.03
2022-08-22T17:16:23.086Z,2.70
2022-08-22T17:19:05.340Z,1.75
2022-08-22T17:21:50.645Z,2.13
2022-08-22T17:25:00.866Z,1.58
2022-08-22T17:27:28.095Z,1.52
2022-08-22T17:30:15.325Z,2.75
2022-08-22T17:32:59.059Z,2.45
2022-08-22T17:35:45.469Z,2.00
2022-08-22T17:38:19.122Z,1.55
2022-08-22T17:41:04.871Z,1.80
2022-08-22T17:43:48.879Z,6.80
2022-08-22T17:46:19.638Z,4.07
2022-08-22T17:48:55.137Z,1.33
2022-08-22T17:51:32.441Z,1.80
2022-08-22T17:54:13.982Z,1.75
2022-08-22T17:56:44.421Z,2.65
2022-08-22T17:59:27.604Z,1.90
2022-08-22T18:02:00.351Z,1.50
2022-08-22T18:05:03.109Z,1.50
2022-08-22T18:07:45.286Z,2.15
2022-08-22T18:10:15.376Z,4.22
2022-08-22T18:13:07.090Z,4.13
2022-08-22T18:15:49.777Z,2.20
2022-08-22T18:18:59.622Z,2.63
2022-08-22T18:21:37.726Z,2.33
2022-08-22T18:24:11.007Z,2.08
2022-08-22T18:27:03.171Z,2.53
2022-08-22T18:29:57.575Z,2.25
2022-08-22T18:32:31.560Z,2.85
2022-08-22T18:35:15.268Z,2.40
2022-08-22T18:37:53.632Z,1.63
2022-08-22T18:40:29.757Z,1.80
2022-08-22T18:42:57.087Z,5.80
2022-08-22T18:45:54.569Z,2.28
2022-08-22T18:48:37.248Z,1.90
2022-08-22T18:51:23.847Z,1.85
2022-08-22T18:53:54.470Z,3.70
2022-08-22T18:56:28.810Z,1.73
2022-08-22T18:59:20.455Z,1.55
2022-08-22T19:01:47.491Z,3.35
2022-08-22T19:04:31.594Z,2.35
2022-08-22T19:07:13.870Z,2.42
2022-08-22T19:10:12.526Z,4.95
2022-08-22T19:13:04.323Z,2.40
2022-08-22T19:15:44.478Z,2.15
2022-08-22T19:18:30.425Z,3.38
2022-08-22T19:21:44.981Z,2.55
2022-08-22T19:24:27.119Z,1.88
2022-08-22T19:27:19.245Z,2.15
2022-08-22T19:29:46.301Z,1.92
2022-08-22T19:32:44.811Z,3.05
2022-08-22T19:35:38.406Z,2.75
2022-08-22T19:38:07.481Z,2.60
2022-08-22T19:40:48.559Z,1.55
2022-08-22T19:43:36.908Z,4.97
2022-08-22T19:46:12.908Z,5.57
2022-08-22T19:48:49.304Z,2.85
2022-08-22T19:51:19.364Z,2.13
2022-08-22T19:54:01.566Z,2.90
2022-08-22T19:56:52.723Z,3.63
2022-08-22T19:59:50.883Z,2.30
2022-08-22T20:02:26.640Z,3.33
2022-08-22T20:05:06.175Z,4.22
2022-08-22T20:07:42.679Z,2.50
2022-08-22T20:10:21.723Z,1.73
2022-08-22T20:12:51.894Z,1.50
2022-08-22T20:15:23.199Z,3.40
2022-08-22T20:20:55.778Z,3.00
2022-08-22T20:23:29.636Z,2.92
2022-08-22T20:25:57.502Z,2.17
2022-08-22T20:28:46.364Z,2.45
2022-08-22T20:31:25.611Z,4.35
2022-08-22T20:33:58.782Z,2.15
2022-08-22T20:36:28.673Z,3.97
2022-08-22T20:39:03.107Z,3.33
2022-08-22T20:41:40.668Z,5.07
2022-08-22T20:44:16.027Z,3.85
2022-08-22T20:46:53.437Z,2.63
2022-08-22T20:49:24.156Z,3.28
2022-08-22T20:52:30.161Z,1.90
2022-08-22T20:55:15.347Z,2.20
2022-08-22T20:57:54.339Z,2.50
2022-08-22T21:00:47.663Z,3.17
2022-08-22T21:03:38.904Z,2.97
2022-08-22T21:06:12.338Z,4.25
2022-08-22T21:08:40.282Z,4.90
2022-08-22T21:11:27.795Z,2.85
2022-08-22T21:13:55.889Z,2.30
2022-08-22T21:16:33.651Z,2.78
2022-08-22T21:19:04.246Z,4.75
2022-08-22T21:21:35.405Z,4.10
2022-08-22T21:24:06.028Z,3.58
2022-08-22T21:26:33.088Z,3.13
2022-08-22T21:29:27.553Z,9.32
2022-08-22T21:32:09.076Z,2.90
2022-08-22T21:34:46.393Z,2.95
2022-08-22T21:37:40.578Z,4.07
2022-08-22T21:40:23.986Z,4.43
2022-08-22T21:43:03.303Z,3.90
2022-08-22T21:45:32.658Z,5.80
2022-08-22T21:48:00.815Z,3.35
2022-08-22T21:50:34.854Z,4.07
2022-08-22T21:53:05.835Z,5.65
2022-08-22T21:55:43.178Z,3.22
2022-08-22T21:58:35.123Z,4.10
2022-08-22T22:01:27.391Z,5.97
2022-08-22T22:03:55.332Z,4.03
2022-08-22T22:06:22.390Z,5.82
2022-08-22T22:08:49.473Z,6.38
2022-08-22T22:11:17.168Z,3.17
2022-08-22T22:13:44.884Z,3.88
2022-08-22T22:16:13.258Z,3.20
2022-08-22T22:18:40.858Z,6.32
2022-08-22T22:21:08.839Z,5.65
2022-08-22T22:23:35.930Z,5.43
2022-08-22T22:26:04.872Z,3.05
2022-08-22T22:28:35.384Z,3.70
2022-08-22T22:33:34.462Z,3.30
2022-08-22T22:36:11.256Z,3.70
2022-08-22T22:38:40.195Z,2.83
2022-08-22T22:41:07.599Z,4.63
2022-08-22T22:43:34.965Z,4.18
2022-08-22T22:46:02.096Z,3.95
2022-08-22T22:48:29.415Z,4.80
2022-08-22T22:50:56.521Z,3.55
2022-08-22T22:53:38.050Z,6.20
2022-08-22T22:56:10.594Z,3.70
2022-08-22T22:58:39.041Z,4.60
2022-08-22T23:01:22.061Z,3.78
2022-08-22T23:03:54.807Z,6.20
2022-08-22T23:06:23.883Z,4.63
2022-08-22T23:08:51.383Z,5.80
2022-08-22T23:11:23.749Z,5.18
2022-08-22T23:13:51.560Z,5.72
2022-08-22T23:16:22.516Z,5.80
2022-08-22T23:18:50.109Z,5.07
2022-08-22T23:21:26.504Z,6.47
2022-08-22T23:23:59.293Z,6.07
2022-08-22T23:26:28.390Z,5.43
2022-08-22T23:28:56.667Z,4.88
2022-08-22T23:31:31.364Z,4.22
2022-08-22T23:34:07.649Z,3.42
2022-08-22T23:36:35.621Z,6.53
2022-08-22T23:39:05.459Z,3.72
2022-08-22T23:41:33.363Z,3.80
2022-08-22T23:44:00.533Z,3.97
2022-08-22T23:46:27.809Z,3.65
2022-08-22T23:48:58.679Z,5.90
2022-08-22T23:51:27.318Z,7.22
2022-08-22T23:53:56.582Z,3.53
2022-08-22T23:56:36.034Z,6.00
2022-08-22T23:59:06.961Z,5.00
